• Join FlightAware (Why Join?)
  • Login
  • US Flag 
07:10PM EDT


 

Airport Tracker/Info


-or-


 

Live Flight TrackerFlight Track Log ✈ SWA1096 ✈ 26-Apr-2013 ✈ KLAS - KSLC

Flight Track Log - Related Links

Times and Time Zones

All times are in EDT time to prevent confusion due to time zone crossing. See the SWA1096 flight status page for this flight to view local times or setup timezone preferences in your user account.

Time Position Orientation Groundspeed Altitude Reporting Facility
EDT Latitude Longitude Course Direction KTS MPH feet Rate Location/Type
09:08AM 36.0750 -115.1633 272° West 161 185 2,900  Level Los Angeles Center
09:09AM 36.0772 -115.2531 272° West 231 266 6,400 2,820 Climbing Los Angeles Center
09:09AM 36.0825 -115.2719 289° West 217 250 7,600 3,780 Climbing Los Angeles Center
09:10AM 36.1272 -115.2950 337° Northwest 242 278 10,300 3,720 Climbing Los Angeles Center
09:10AM 36.1464 -115.2917 North 249 287 11,400 2,700 Climbing Los Angeles Center
09:11AM 36.1872 -115.2144 57° Northeast 275 316 14,200 2,460 Climbing Los Angeles Center
09:12AM 36.1969 -115.0931 84° East 356 410 16,400 2,760 Climbing Los Angeles Center
09:13AM 36.1981 -114.9364 89° East 379 436 19,900 3,060 Climbing Los Angeles Center
09:14AM 36.2031 -114.7986 87° East 398 458 22,600 2,520 Climbing Los Angeles Center
09:15AM 36.2831 -114.7022 44° Northeast 403 464 25,100 2,340 Climbing Los Angeles Center
09:16AM 36.3725 -114.6172 37° Northeast 406 467 27,400 2,160 Climbing Los Angeles Center
09:17AM 36.4658 -114.5294 37° Northeast 417 480 29,600 2,160 Climbing Los Angeles Center
09:18AM 36.5603 -114.4419 37° Northeast 423 487 31,800 1,620 Climbing Los Angeles Center
09:19AM 36.6594 -114.3658 32° Northeast 420 483 33,000 540 Climbing Los Angeles Center
09:20AM 36.7578 -114.2908 31° Northeast 416 479 33,000  Level Los Angeles Center
09:21AM 36.8553 -114.2144 32° Northeast 414 476 33,000  Level Los Angeles Center
09:22AM 36.9531 -114.1386 32° Northeast 414 476 33,000  Level Los Angeles Center
09:23AM 37.0494 -114.0617 32° Northeast 411 473 33,000  Level Los Angeles Center
09:24AM 37.1461 -113.9858 32° Northeast 411 473 33,000  Level Los Angeles Center
09:25AM 37.2506 -113.9061 31° Northeast 412 474 33,000  Level Salt Lake Center
09:26AM 37.3467 -113.8292 32° Northeast 410 472 33,000  Level Salt Lake Center
09:27AM 37.4450 -113.7514 32° Northeast 414 476 33,000  Level Salt Lake Center
09:28AM 37.5428 -113.6744 32° Northeast 414 476 33,000  Level Salt Lake Center
09:29AM 37.6400 -113.5964 32° Northeast 413 475 33,000  Level Salt Lake Center
09:30AM 37.7372 -113.5194 32° Northeast 412 474 33,000  Level Salt Lake Center
09:31AM 37.8400 -113.4608 24° Northeast 408 470 33,000  Level Salt Lake Center
09:32AM 37.9425 -113.4044 23° Northeast 401 461 33,000  Level Salt Lake Center
09:33AM 38.0458 -113.3494 23° Northeast 401 461 33,000  Level Salt Lake Center
09:34AM 38.1503 -113.2944 22° Northeast 403 464 33,000  Level Salt Lake Center
09:35AM 38.2542 -113.2400 22° Northeast 403 464 33,000  Level Salt Lake Center
09:36AM 38.3586 -113.1842 23° Northeast 405 466 33,000  Level Salt Lake Center
09:38AM 38.4622 -113.1272 23° Northeast 406 467 33,000 -300 Level Salt Lake Center
09:39AM 38.5656 -113.0708 23° Northeast 404 465 32,400 -540 Descending Salt Lake Center
09:40AM 38.6689 -113.0147 23° Northeast 404 465 32,000 -240 Descending Salt Lake Center
09:41AM 38.7928 -112.9478 23° Northeast 403 464 32,000  Level Salt Lake Center
09:42AM 38.8964 -112.8925 23° Northeast 403 464 32,000  Level Salt Lake Center
09:43AM 39.0003 -112.8358 23° Northeast 405 466 32,000  Level Salt Lake Center
09:44AM 39.1036 -112.7786 23° Northeast 404 465 32,000  Level Salt Lake Center
09:45AM 39.2078 -112.7233 22° Northeast 405 466 32,000  Level Salt Lake Center
09:46AM 39.3111 -112.6650 24° Northeast 406 467 32,000 -720 Level Salt Lake Center
09:47AM 39.4281 -112.6019 23° Northeast 406 467 30,600 -1,860 Descending Salt Lake Center
09:48AM 39.5294 -112.5444 24° Northeast 401 461 28,300 -2,220 Descending Salt Lake Center
09:49AM 39.6272 -112.4906 23° Northeast 386 444 26,100 -2,100 Descending Salt Lake Center
09:50AM 39.7222 -112.4394 22° Northeast 373 429 24,100 -1,980 Descending Salt Lake Center
09:51AM 39.8139 -112.3872 24° Northeast 364 419 22,100 -2,100 Descending Salt Lake Center
09:51AM 39.8886 -112.3572 17° North 358 412 20,500 -1,980 Descending Salt Lake Center
09:52AM 39.9047 -112.3367 44° Northeast 357 411 20,100 -2,040 Descending Salt Lake Center
09:52AM 39.9444 -112.3247 13° North 355 409 19,300 -1,920 Descending Salt Lake Center
09:53AM 39.9928 -112.2867 31° Northeast 345 397 18,200 -1,920 Descending Salt Lake Center
09:53AM 40.0375 -112.2714 15° North 339 390 17,200 -1,320 Descending Salt Lake Center
09:54AM 40.0803 -112.2439 26° Northeast 337 388 16,900 -240 Descending Salt Lake Center
09:54AM 40.1258 -112.2394 North 340 391 17,000 -120 Climbing Salt Lake Center
09:55AM 40.1717 -112.2139 23° Northeast 338 389 16,800 -1,200 Descending Salt Lake Center
09:55AM 40.2181 -112.2058 North 332 382 15,800 -2,400 Descending Salt Lake Center
09:56AM 40.2767 -112.1792 19° North 324 373 14,400 -1,800 Descending Salt Lake Center
09:56AM 40.3069 -112.1761 North 324 373 14,000 -420 Descending Salt Lake Center
09:57AM 40.3644 -112.1492 20° North 326 375 14,000  Level Salt Lake Center
09:57AM 40.3975 -112.1431 North 329 379 14,000 -540 Level Salt Lake Center
09:58AM 40.4536 -112.1186 18° North 330 380 13,500 -1,020 Descending Salt Lake Center
09:58AM 40.4861 -112.1131 North 329 379 13,000 -1,320 Descending Salt Lake Center
09:59AM 40.5408 -112.0886 19° North 325 374 12,200 -1,020 Descending Salt Lake Center
09:59AM 40.5822 -112.0864 North 320 368 11,900 -1,140 Descending Salt Lake Center
10:00AM 40.6269 -112.0786 North 311 358 11,100 -900 Descending Salt Lake Center
10:00AM 40.6722 -112.0844 354° North 324 373 11,000 -240 Descending Salt Lake Center
10:01AM 40.7175 -112.0869 358° North 325 374 10,900  Descending Salt Lake Center
10:01AM 40.7556 -112.0931 353° North 304 350 11,000  Climbing Salt Lake Center
10:02AM 40.7964 -112.0964 356° North 279 321 10,900 -600 Descending Salt Lake Center
10:02AM 40.8375 -112.1047 351° North 253 291 10,400 -900 Descending Salt Lake Center
10:03AM 40.8653 -112.1047 360° North 249 287 10,000 -1,020 Descending Salt Lake Center
10:03AM 40.8989 -112.1097 354° North 248 285 9,500 -1,380 Descending Salt Lake Center
10:04AM 40.9319 -112.1122 357° North 240 276 8,600 -1,620 Descending Salt Lake Center
10:05AM 40.9631 -112.0964 21° North 218 251 7,700 -1,320 Descending Salt Lake Center
10:05AM 40.9628 -112.0692 91° East 205 236 7,300 -1,320 Descending Salt Lake Center
10:06AM 40.9408 -112.0386 134° Southeast 192 221 6,400 -1,260 Descending Salt Lake Center
10:06AM 40.9142 -112.0211 154° Southeast 183 211 6,000 -480 Descending Salt Lake Center
10:06AM 40.8972 -112.0136 162° South 182 209 6,000 -600 Level Salt Lake Center
10:07AM 40.8703 -112.0067 169° South 158 182 5,400 -900 Descending Salt Lake Center
10:07AM 40.8567 -112.0047 174° South 147 169 5,100 -780 Descending Salt Lake Center
10:08AM 40.8306 -112.0014 174° South 145 167 4,600 -720 Descending Salt Lake Center
10:09AM 40.8153 -112.0019 182° South 139 160 4,300 -540 Descending Salt Lake Center
10:09AM 40.7950 -111.9975 171° South 133 153 4,100 -360 Descending Salt Lake Center
10:11AM 40.7884 -111.9778 159° South  Level Estimated